Gainsborough, Canada
Current Conditions -  °F | °C
As of 10:58 AM on Thursday 23 Oct 2014 (Local Time) from KMIB Reporting Station
Clear Clear  
Wind Chill: 60°   Ceiling: Unl
Heat Index: 60°   Visibility: 10mi
Dew Point: 36°   Wind: 10mph
Humidity: 41%   Direction: 240°WSW
Pressure: 29.81"   Gusts: NA
Location:  49.17°N, 101.45°W
Report Text: KMIB 231658Z AUTO 24009KT 10SM CLR 16/02 A2981 RMK AO2 SLP103 T01560024 $
Loading
Personal Weather Stations






























Interactive Weather Map
Tropical Storm Tracking
New forecast layout! Learn more

10-Day Weather Forecast

Advertisements
Track Severe Weather on mobile